Time;durP1;ratioP1;P1;durP2;ratioP2;P2;SDS_P1;SDS_P2;PMS_P1;PMS_P2;Temp;Humidity;BMP_temperature;BMP_pressure;BME280_temperature;BME280_humidity;BME280_pressure;Samples;Min_cycle;Max_cycle;Signal;HPM_P1;HPM_P2
2024/03/21 00:01:47;;;;;;;13.70;6.00;;;;;;;8.05;100.00;101349.72;5039150;28;20036;-69
2024/03/21 00:04:13;;;;;;;11.45;6.35;;;;;;;8.13;100.00;101339.63;5042548;28;20112;-69
2024/03/21 00:06:39;;;;;;;12.63;6.45;;;;;;;8.20;100.00;101340.03;5042465;28;20033;-69
2024/03/21 00:09:08;;;;;;;12.80;7.00;;;;;;;8.23;100.00;101338.03;5043541;28;20039;-69
2024/03/21 00:11:33;;;;;;;14.32;6.40;;;;;;;8.27;100.00;101338.66;5040602;28;20029;-69
2024/03/21 00:13:59;;;;;;;14.60;6.85;;;;;;;8.34;100.00;101344.28;5035913;28;20443;-69
2024/03/21 00:16:24;;;;;;;16.00;6.20;;;;;;;8.37;100.00;101338.88;5037741;28;20505;-69
2024/03/21 00:18:50;;;;;;;17.08;6.50;;;;;;;8.38;100.00;101336.16;5035173;28;20064;-69
2024/03/21 00:21:15;;;;;;;15.70;7.65;;;;;;;8.42;100.00;101329.81;5036207;28;20044;-69
2024/03/21 00:23:41;;;;;;;14.63;7.15;;;;;;;8.52;100.00;101328.19;5042384;28;20052;-69
2024/03/21 00:26:06;;;;;;;17.05;7.05;;;;;;;8.56;100.00;101324.44;5037594;28;20029;-70
2024/03/21 00:28:31;;;;;;;13.27;6.13;;;;;;;8.58;100.00;101324.34;5040204;28;20039;-69
2024/03/21 00:30:58;;;;;;;16.17;7.38;;;;;;;8.61;100.00;101326.72;5037313;28;20033;-69
2024/03/21 00:33:24;;;;;;;15.88;6.40;;;;;;;8.63;100.00;101328.25;5039015;28;20047;-69
2024/03/21 00:35:50;;;;;;;15.65;7.05;;;;;;;8.67;100.00;101321.06;5040306;28;20045;-69
2024/03/21 00:38:15;;;;;;;12.30;6.70;;;;;;;8.71;100.00;101327.72;5045145;28;20029;-69
2024/03/21 00:40:41;;;;;;;13.63;6.57;;;;;;;8.71;100.00;101317.31;5039573;28;20075;-69
2024/03/21 00:43:06;;;;;;;11.02;6.13;;;;;;;8.71;100.00;101322.50;5034789;28;20088;-69
2024/03/21 00:45:32;;;;;;;14.07;5.78;;;;;;;8.70;100.00;101310.47;5044360;28;20078;-69
2024/03/21 00:47:58;;;;;;;16.27;6.45;;;;;;;8.69;100.00;101301.00;5040948;28;20116;-69
2024/03/21 00:50:23;;;;;;;14.27;7.55;;;;;;;8.67;100.00;101305.47;5039714;28;20113;-69
2024/03/21 00:52:49;;;;;;;14.38;6.25;;;;;;;8.65;100.00;101303.00;5044178;28;20086;-69
2024/03/21 00:55:15;;;;;;;20.05;7.70;;;;;;;8.68;100.00;101304.53;5042209;28;20076;-69
2024/03/21 00:57:40;;;;;;;16.88;8.02;;;;;;;8.71;100.00;101298.31;5044588;28;20037;-69
2024/03/21 01:00:07;;;;;;;17.23;7.80;;;;;;;8.72;100.00;101303.38;5040964;28;20051;-69
2024/03/21 01:02:34;;;;;;;16.65;7.10;;;;;;;8.72;100.00;101307.75;5044596;28;20079;-69
2024/03/21 01:05:00;;;;;;;17.75;7.95;;;;;;;8.73;100.00;101299.84;5040446;28;20059;-69
2024/03/21 01:07:27;;;;;;;18.83;8.52;;;;;;;8.73;100.00;101299.84;5044409;28;20032;-69
2024/03/21 01:09:53;;;;;;;18.75;8.20;;;;;;;8.71;100.00;101295.69;5046040;28;20023;-69
2024/03/21 01:12:19;;;;;;;15.25;8.35;;;;;;;8.67;100.00;101299.47;5040336;28;20048;-69
2024/03/21 01:14:44;;;;;;;23.63;9.43;;;;;;;8.60;100.00;101296.47;5047447;28;20029;-69
2024/03/21 01:17:10;;;;;;;23.98;10.60;;;;;;;8.57;100.00;101294.09;5045568;28;20029;-69
2024/03/21 01:19:37;;;;;;;22.95;9.52;;;;;;;8.55;100.00;101298.56;5045921;28;20032;-69
2024/03/21 01:22:02;;;;;;;19.92;9.48;;;;;;;8.53;100.00;101295.25;5043475;28;20124;-69
2024/03/21 01:24:27;;;;;;;17.10;8.20;;;;;;;8.51;100.00;101295.38;5047787;28;20090;-69
2024/03/21 01:26:53;;;;;;;18.73;8.38;;;;;;;8.47;100.00;101304.34;5044877;28;20021;-69
2024/03/21 01:29:18;;;;;;;21.80;7.40;;;;;;;8.45;100.00;101305.41;5044491;28;21507;-69
2024/03/21 01:31:44;;;;;;;17.00;7.20;;;;;;;8.45;100.00;101305.41;5044974;28;20487;-69
2024/03/21 01:34:09;;;;;;;20.15;8.07;;;;;;;8.46;100.00;101304.47;5050304;28;20377;-69
2024/03/21 01:36:44;;;;;;;18.08;8.90;;;;;;;8.50;100.00;101308.50;5043867;28;20083;-69
2024/03/21 01:39:10;;;;;;;18.60;8.70;;;;;;;8.55;100.00;101306.38;5044480;28;20045;-69
2024/03/21 01:41:36;;;;;;;25.67;8.88;;;;;;;8.60;100.00;101301.66;5049837;28;20044;-68
2024/03/21 01:44:01;;;;;;;20.15;9.10;;;;;;;8.68;100.00;101298.53;5045552;28;20033;-69
2024/03/21 01:46:27;;;;;;;16.73;8.70;;;;;;;8.70;100.00;101307.88;5043566;28;20066;-69
2024/03/21 01:48:53;;;;;;;18.02;8.38;;;;;;;8.75;100.00;101316.16;5047708;28;20064;-69
2024/03/21 01:51:22;;;;;;;15.88;8.23;;;;;;;8.82;100.00;101308.75;5043567;28;20037;-69
2024/03/21 01:53:50;;;;;;;21.45;9.32;;;;;;;8.89;100.00;101312.56;5046370;28;20041;-69
2024/03/21 01:56:16;;;;;;;16.55;7.95;;;;;;;8.92;100.00;101313.16;5047489;28;20025;-69
2024/03/21 01:58:42;;;;;;;18.23;7.78;;;;;;;8.97;100.00;101308.44;5044097;28;20029;-69
2024/03/21 02:01:26;;;;;;;18.50;8.18;;;;;;;8.99;100.00;101300.50;5036800;28;20041;-69
2024/03/21 02:03:54;;;;;;;16.90;7.63;;;;;;;8.99;100.00;101298.75;5046372;28;20159;-69
2024/03/21 02:06:20;;;;;;;23.23;8.15;;;;;;;9.03;100.00;101303.72;5045559;28;20033;-69
2024/03/21 02:08:46;;;;;;;13.43;6.93;;;;;;;9.01;100.00;101297.78;5044902;28;20738;-69
2024/03/21 02:11:12;;;;;;;14.82;8.30;;;;;;;9.01;100.00;101296.03;5046355;28;20044;-69
2024/03/21 02:13:38;;;;;;;18.80;7.78;;;;;;;9.05;100.00;101299.22;5046851;28;20052;-69
2024/03/21 02:16:03;;;;;;;20.63;7.80;;;;;;;9.06;100.00;101298.28;5046643;28;20072;-69
2024/03/21 02:18:29;;;;;;;18.77;8.10;;;;;;;9.06;100.00;101293.09;5043868;28;20048;-69
2024/03/21 02:20:54;;;;;;;19.05;7.95;;;;;;;9.06;100.00;101298.28;5047924;28;20032;-69
2024/03/21 02:23:19;;;;;;;19.00;8.43;;;;;;;9.08;100.00;101299.00;5043795;28;20066;-69
2024/03/21 02:25:45;;;;;;;13.43;7.30;;;;;;;9.05;100.00;101289.66;5046059;28;20037;-69
2024/03/21 02:28:10;;;;;;;14.20;7.63;;;;;;;9.04;100.00;101282.81;5037901;28;20033;-69
2024/03/21 02:30:36;;;;;;;17.38;7.78;;;;;;;9.04;100.00;101288.00;5050720;28;20025;-69
2024/03/21 02:33:01;;;;;;;16.38;8.82;;;;;;;9.02;100.00;101289.06;5044585;28;20102;-69
2024/03/21 02:35:26;;;;;;;20.02;8.05;;;;;;;8.99;100.00;101279.72;5045395;28;20037;-69
2024/03/21 02:37:52;;;;;;;13.77;7.43;;;;;;;9.02;100.00;101282.09;5045986;28;20026;-69
2024/03/21 02:40:17;;;;;;;19.75;7.82;;;;;;;9.05;100.00;101278.44;5043206;28;20117;-69
2024/03/21 02:42:43;;;;;;;15.32;8.18;;;;;;;9.07;100.00;101276.53;5040208;28;20037;-69
2024/03/21 02:45:08;;;;;;;12.43;7.40;;;;;;;9.10;100.00;101282.34;5037198;28;20533;-69
2024/03/21 02:47:34;;;;;;;17.33;8.48;;;;;;;9.16;100.00;101278.47;5040428;28;20051;-69
2024/03/21 02:50:00;;;;;;;13.55;7.63;;;;;;;9.19;100.00;101273.84;5040539;28;20534;-69
2024/03/21 02:52:25;;;;;;;19.92;7.57;;;;;;;9.24;100.00;101283.91;5042238;28;20067;-69
2024/03/21 02:54:51;;;;;;;15.98;7.88;;;;;;;9.24;100.00;101276.94;5045417;28;20476;-69
2024/03/21 02:57:16;;;;;;;11.18;6.47;;;;;;;9.22;100.00;101275.41;5044979;28;20588;-69
2024/03/21 02:59:41;;;;;;;19.95;8.18;;;;;;;9.20;100.00;101279.88;5041937;28;20033;-69
2024/03/21 03:02:08;;;;;;;14.02;7.03;;;;;;;9.19;100.00;101281.66;5045187;28;20033;-69
2024/03/21 03:04:33;;;;;;;16.80;6.82;;;;;;;9.18;100.00;101280.00;5044356;28;20377;-69
2024/03/21 03:06:59;;;;;;;15.60;7.60;;;;;;;9.14;100.00;101278.56;5045977;28;20112;-69
2024/03/21 03:09:24;;;;;;;16.05;6.75;;;;;;;9.12;100.00;101274.44;5042118;28;20404;-68
2024/03/21 03:11:50;;;;;;;13.57;6.63;;;;;;;9.10;100.00;101276.31;5043748;28;20029;-69
2024/03/21 03:14:16;;;;;;;10.93;6.18;;;;;;;9.09;100.00;101282.47;5041705;28;20059;-69
2024/03/21 03:16:42;;;;;;;14.13;6.57;;;;;;;9.04;100.00;101276.78;5037228;28;20120;-69
2024/03/21 03:19:07;;;;;;;15.77;6.63;;;;;;;8.97;100.00;101277.25;5039918;28;20438;-69
2024/03/21 03:21:33;;;;;;;14.85;7.00;;;;;;;8.91;100.00;101266.50;5042266;28;20048;-69
2024/03/21 03:23:58;;;;;;;15.55;6.88;;;;;;;8.85;100.00;101272.97;5040540;28;20116;-69
2024/03/21 03:26:24;;;;;;;13.25;7.20;;;;;;;8.79;100.00;101268.22;5044995;28;20028;-69
2024/03/21 03:28:50;;;;;;;15.30;7.85;;;;;;;8.71;100.00;101270.56;5043980;28;20111;-69
2024/03/21 03:31:15;;;;;;;14.75;6.85;;;;;;;8.63;100.00;101271.09;5042902;28;20025;-69
2024/03/21 03:36:26;;;;;;;16.35;6.95;;;;;;;8.39;100.00;101261.69;5046050;28;20102;-69
2024/03/21 03:38:51;;;;;;;15.07;7.10;;;;;;;8.30;100.00;101261.38;5042132;28;20021;-69
2024/03/21 03:41:17;;;;;;;12.25;6.47;;;;;;;8.25;100.00;101258.28;5041293;28;20136;-69
2024/03/21 03:43:42;;;;;;;12.88;7.05;;;;;;;8.22;100.00;101260.28;5046295;28;20079;-69
2024/03/21 03:46:08;;;;;;;16.35;7.07;;;;;;;8.19;100.00;101261.31;5035628;28;20022;-69
2024/03/21 03:48:34;;;;;;;16.75;7.03;;;;;;;8.22;100.00;101258.50;5042567;28;20652;-69
2024/03/21 03:50:59;;;;;;;14.73;6.93;;;;;;;8.26;100.00;101259.13;5034260;28;20075;-69
2024/03/21 03:53:25;;;;;;;15.73;6.60;;;;;;;8.27;100.00;101259.00;5044524;28;20029;-69
2024/03/21 03:55:51;;;;;;;15.70;7.65;;;;;;;8.32;100.00;101258.69;5035793;28;20080;-69
2024/03/21 03:58:16;;;;;;;17.15;7.65;;;;;;;8.34;100.00;101259.44;5039613;28;20044;-69
2024/03/21 04:00:42;;;;;;;17.33;7.30;;;;;;;8.35;100.00;101261.09;5039431;28;20033;-69
2024/03/21 04:03:07;;;;;;;12.63;6.57;;;;;;;8.38;100.00;101257.44;5044381;28;20410;-69
2024/03/21 04:05:33;;;;;;;13.02;6.22;;;;;;;8.38;100.00;101258.28;5041293;28;20438;-69
2024/03/21 04:07:58;;;;;;;15.80;6.78;;;;;;;8.40;100.00;101260.75;5036675;28;20020;-69
2024/03/21 04:10:24;;;;;;;17.08;6.97;;;;;;;8.39;100.00;101256.50;5043089;28;20415;-69
2024/03/21 04:12:49;;;;;;;13.02;5.90;;;;;;;8.37;100.00;101256.63;5042276;28;20041;-69
2024/03/21 04:15:15;;;;;;;17.50;8.23;;;;;;;8.36;100.00;101265.34;5041387;28;20198;-69
2024/03/21 04:17:40;;;;;;;16.13;7.78;;;;;;;8.35;100.00;101263.69;5040642;28;20052;-69
2024/03/21 04:20:06;;;;;;;16.58;6.90;;;;;;;8.37;100.00;101261.81;5035799;28;20029;-69
2024/03/21 04:22:35;;;;;;;18.80;7.70;;;;;;;8.42;100.00;101258.88;5041565;28;20034;-69
2024/03/21 04:25:05;;;;;;;20.38;7.97;;;;;;;8.42;100.00;101259.72;5041673;28;20099;-69
2024/03/21 04:27:31;;;;;;;13.50;6.82;;;;;;;8.41;100.00;101257.22;5041598;28;20079;-70
2024/03/21 04:29:58;;;;;;;15.85;7.28;;;;;;;8.41;100.00;101258.06;5041921;28;20029;-69
2024/03/21 04:32:25;;;;;;;14.52;7.53;;;;;;;8.32;100.00;101254.34;5038637;28;20037;-69
2024/03/21 04:34:50;;;;;;;16.75;6.72;;;;;;;8.20;100.00;101247.41;5041070;28;20517;-69
2024/03/21 04:37:17;;;;;;;18.45;7.85;;;;;;;8.09;100.00;101251.69;5039368;28;20485;-69
2024/03/21 04:39:47;;;;;;;15.80;6.85;;;;;;;8.02;100.00;101255.69;5039871;28;20044;-69
2024/03/21 04:42:17;;;;;;;14.70;8.27;;;;;;;7.93;100.00;101257.16;5035686;28;20034;-69
2024/03/21 04:44:43;;;;;;;20.13;7.60;;;;;;;7.88;100.00;101248.88;5045998;28;20484;-69
2024/03/21 04:47:08;;;;;;;12.85;7.05;;;;;;;7.82;100.00;101249.31;5045453;28;20056;-69
2024/03/21 04:49:34;;;;;;;15.27;6.50;;;;;;;7.77;100.00;101254.81;5044971;28;20029;-69
2024/03/21 04:51:59;;;;;;;15.18;6.70;;;;;;;7.70;100.00;101263.94;5043396;28;20048;-69
2024/03/21 04:54:24;;;;;;;17.20;6.65;;;;;;;7.63;100.00;101262.72;5032502;28;20038;-69
2024/03/21 04:56:50;;;;;;;14.57;6.88;;;;;;;7.60;100.00;101273.28;5045883;28;20033;-69
2024/03/21 04:59:15;;;;;;;19.38;6.80;;;;;;;7.59;100.00;101269.03;5035695;28;20043;-69
2024/03/21 05:01:41;;;;;;;11.10;5.97;;;;;;;7.56;100.00;101270.09;5043070;28;20032;-69
2024/03/21 05:04:06;;;;;;;13.68;6.70;;;;;;;7.53;100.00;101278.09;5040150;28;20437;-69
2024/03/21 05:06:32;;;;;;;15.35;6.60;;;;;;;7.49;100.00;101275.81;5039998;28;20094;-69
2024/03/21 05:08:57;;;;;;;17.00;6.63;;;;;;;7.52;100.00;101284.22;5037297;28;20492;-69
2024/03/21 05:11:23;;;;;;;12.65;7.20;;;;;;;7.55;100.00;101284.03;5036686;28;20461;-70
2024/03/21 05:13:50;;;;;;;17.15;7.65;;;;;;;7.58;100.00;101281.19;5043504;28;20029;-69
2024/03/21 05:16:18;;;;;;;16.48;7.43;;;;;;;7.61;100.00;101278.38;5044720;28;20136;-70
2024/03/21 05:18:44;;;;;;;18.05;6.35;;;;;;;7.62;100.00;101277.44;5035594;28;20373;-69
2024/03/21 05:21:10;;;;;;;15.90;7.53;;;;;;;7.60;100.00;101281.91;5035674;28;20033;-69
2024/03/21 05:23:35;;;;;;;22.10;7.93;;;;;;;7.65;100.00;101279.84;5037547;28;20091;-69
2024/03/21 05:26:01;;;;;;;19.25;7.30;;;;;;;7.78;100.00;101284.19;5039876;28;20091;-69
2024/03/21 05:28:27;;;;;;;15.95;6.97;;;;;;;7.72;100.00;101284.59;5031205;28;20033;-69
2024/03/21 05:30:52;;;;;;;15.15;7.78;;;;;;;7.66;100.00;101285.84;5040104;28;20037;-68
2024/03/21 05:33:18;;;;;;;18.67;7.97;;;;;;;7.73;100.00;101281.06;5044538;28;20412;-69
2024/03/21 05:35:43;;;;;;;15.23;7.25;;;;;;;7.69;100.00;101277.03;5045164;28;20033;-69
2024/03/21 05:38:09;;;;;;;21.85;8.02;;;;;;;7.70;100.00;101283.88;5042390;28;20049;-69
2024/03/21 05:40:34;;;;;;;20.55;7.55;;;;;;;7.71;100.00;101288.13;5047148;28;20136;-69
2024/03/21 05:42:59;;;;;;;16.27;8.25;;;;;;;7.70;100.00;101284.69;5044882;28;21626;-69
2024/03/21 05:45:25;;;;;;;16.55;7.70;;;;;;;7.72;100.00;101282.00;5043747;28;20083;-69
2024/03/21 05:47:50;;;;;;;23.25;7.88;;;;;;;7.77;100.00;101277.34;5044982;28;20021;-69
2024/03/21 05:50:16;;;;;;;17.10;7.15;;;;;;;7.81;100.00;101278.78;5044148;28;20033;-69
2024/03/21 05:52:42;;;;;;;15.90;7.47;;;;;;;7.87;100.00;101273.16;5042724;28;20029;-69
2024/03/21 05:55:08;;;;;;;18.75;7.93;;;;;;;7.95;100.00;101273.47;5046895;28;21424;-69
2024/03/21 05:57:35;;;;;;;17.13;7.43;;;;;;;8.04;100.00;101283.16;5048296;28;20037;-69
2024/03/21 06:00:06;;;;;;;13.75;6.82;;;;;;;8.11;100.00;101280.97;5043250;28;20041;-68
2024/03/21 06:02:32;;;;;;;21.38;7.70;;;;;;;8.17;100.00;101281.38;5041836;28;20111;-68
2024/03/21 06:04:57;;;;;;;24.58;7.55;;;;;;;8.22;100.00;101275.84;5046241;28;20113;-69
2024/03/21 06:07:22;;;;;;;15.60;7.30;;;;;;;8.30;100.00;101284.75;5044984;28;20035;-69
2024/03/21 06:09:48;;;;;;;23.00;8.82;;;;;;;8.38;100.00;101288.59;5045342;28;20029;-69
2024/03/21 06:12:13;;;;;;;16.50;8.20;;;;;;;8.52;100.00;101294.44;5043773;28;20037;-69
2024/03/21 06:14:39;;;;;;;17.77;8.45;;;;;;;8.61;100.00;101287.75;5046370;28;20085;-69
2024/03/21 06:17:04;;;;;;;21.83;8.18;;;;;;;8.66;100.00;101288.25;5043520;28;20060;-68
2024/03/21 06:19:29;;;;;;;18.00;8.68;;;;;;;8.77;100.00;101301.28;5046401;28;20028;-68
2024/03/21 06:21:56;;;;;;;20.35;8.52;;;;;;;8.86;100.00;101300.59;5044462;28;20025;-68
2024/03/21 06:24:21;;;;;;;23.50;8.57;;;;;;;8.98;100.00;101296.25;5044537;28;20029;-68
2024/03/21 06:26:47;;;;;;;20.90;8.43;;;;;;;9.09;100.00;101300.66;5046560;28;20029;-68
2024/03/21 06:29:12;;;;;;;21.80;8.80;;;;;;;9.17;100.00;101296.53;5043059;28;20063;-68
2024/03/21 06:31:38;;;;;;;15.93;8.27;;;;;;;9.27;100.00;101299.28;5043922;28;20127;-69
2024/03/21 06:34:03;;;;;;;18.73;7.85;;;;;;;9.37;100.00;101297.66;5042881;28;20033;-69
2024/03/21 06:36:29;;;;;;;22.83;8.75;;;;;;;9.49;100.00;101301.91;5045861;28;20028;-68
2024/03/21 06:38:54;;;;;;;19.10;9.02;;;;;;;9.61;100.00;101302.72;5035824;28;20033;-68
2024/03/21 06:41:20;;;;;;;17.75;8.73;;;;;;;9.81;100.00;101303.81;5043088;28;20098;-68
2024/03/21 06:43:45;;;;;;;17.60;8.63;;;;;;;10.01;100.00;101305.66;5037602;28;20515;-68
2024/03/21 06:46:10;;;;;;;24.85;9.00;;;;;;;10.15;100.00;101297.59;5038278;28;20032;-68
2024/03/21 06:48:36;;;;;;;23.45;9.35;;;;;;;10.30;100.00;101299.03;5043360;28;20450;-68
2024/03/21 06:51:07;;;;;;;23.50;9.50;;;;;;;10.49;100.00;101294.91;5039261;28;20455;-68
2024/03/21 06:53:32;;;;;;;22.23;9.27;;;;;;;10.75;100.00;101296.25;5041446;28;20028;-68
2024/03/21 06:55:58;;;;;;;18.40;9.20;;;;;;;10.93;100.00;101297.34;5038738;28;20090;-69
2024/03/21 06:58:23;;;;;;;25.95;8.85;;;;;;;11.12;100.00;101298.41;5040070;28;20119;-68
2024/03/21 07:00:49;;;;;;;20.75;10.10;;;;;;;11.21;100.00;101301.09;5033180;28;20112;-68
2024/03/21 07:03:14;;;;;;;18.10;7.82;;;;;;;11.18;100.00;101303.13;5042055;28;20377;-68
2024/03/21 07:05:40;;;;;;;16.42;8.15;;;;;;;11.26;100.00;101301.53;5046439;28;20088;-68
2024/03/21 07:08:06;;;;;;;19.38;7.55;;;;;;;11.30;100.00;101305.53;5045560;28;20032;-68
2024/03/21 07:10:32;;;;;;;18.10;8.00;;;;;;;11.36;100.00;101306.78;5049851;28;20036;-68
2024/03/21 07:12:58;;;;;;;22.98;8.63;;;;;;;11.32;100.00;101297.59;5045938;28;20182;-69
2024/03/21 07:15:23;;;;;;;17.80;9.10;;;;;;;11.35;100.00;101307.75;5045901;28;20039;-68
2024/03/21 07:17:48;;;;;;;22.40;8.70;;;;;;;11.51;100.00;101310.72;5039830;28;20060;-69
2024/03/21 07:20:14;;;;;;;24.02;9.85;;;;;;;11.60;100.00;101314.34;5034969;28;20036;-69
2024/03/21 07:22:39;;;;;;;19.00;9.20;;;;;;;11.57;100.00;101317.22;5046804;28;20032;-69
2024/03/21 07:25:09;;;;;;;19.80;9.70;;;;;;;11.69;100.00;101324.00;5042507;28;20509;-68
2024/03/21 07:27:35;;;;;;;22.73;10.27;;;;;;;11.71;100.00;101316.88;5045428;28;20033;-68
2024/03/21 07:30:07;;;;;;;19.88;9.70;;;;;;;11.98;100.00;101312.84;5045515;28;20111;-69
2024/03/21 07:32:33;;;;;;;20.08;9.60;;;;;;;12.25;99.16;101316.50;5041444;28;20460;-69
2024/03/21 07:34:58;;;;;;;18.65;9.57;;;;;;;12.37;99.34;101313.75;5045603;28;20036;-68
2024/03/21 07:37:23;;;;;;;24.45;9.85;;;;;;;12.27;97.87;101314.59;5041748;28;20420;-68
2024/03/21 07:39:50;;;;;;;23.48;10.63;;;;;;;12.24;98.69;101312.25;5046491;28;20044;-69
2024/03/21 07:42:15;;;;;;;20.55;9.38;;;;;;;12.43;99.16;101313.22;5048772;28;20535;-69
2024/03/21 07:44:41;;;;;;;21.65;10.25;;;;;;;12.42;97.66;101314.19;5038544;28;20037;-69
2024/03/21 07:47:06;;;;;;;22.33;10.15;;;;;;;12.38;99.20;101305.78;5039632;28;20485;-69
2024/03/21 07:49:32;;;;;;;20.60;10.43;;;;;;;12.60;99.08;101305.53;5046758;28;20094;-69
2024/03/21 07:52:01;;;;;;;24.92;11.18;;;;;;;12.82;97.47;101306.19;5043901;28;20449;-76
2024/03/21 07:54:30;;;;;;;20.45;10.25;;;;;;;13.13;96.05;101317.34;5044234;28;20064;-76
2024/03/21 07:56:58;;;;;;;23.70;10.05;;;;;;;13.59;95.57;101312.13;5038945;28;20111;-76
2024/03/21 07:59:24;;;;;;;28.02;9.95;;;;;;;13.52;88.64;101312.84;5039178;28;20035;-76
2024/03/21 08:01:50;;;;;;;24.63;11.00;;;;;;;13.57;91.98;101315.88;5046567;28;20032;-76
2024/03/21 08:04:15;;;;;;;23.77;10.02;;;;;;;13.58;92.60;101325.38;5033715;28;20037;-76
2024/03/21 08:06:41;;;;;;;20.25;9.55;;;;;;;13.43;89.50;101318.94;5045660;28;20079;-76
2024/03/21 08:09:09;;;;;;;17.40;9.57;;;;;;;13.46;90.77;101321.28;5038267;28;20060;-76
2024/03/21 08:11:35;;;;;;;20.98;8.15;;;;;;;13.52;91.53;101311.06;5046737;28;20079;-76
2024/03/21 08:14:01;;;;;;;16.83;8.90;;;;;;;13.68;91.45;101320.94;5038109;28;20037;-76
2024/03/21 08:16:27;;;;;;;21.67;8.48;;;;;;;14.13;87.15;101321.00;5041663;28;20033;-76
2024/03/21 08:18:52;;;;;;;15.93;7.57;;;;;;;14.32;88.00;101317.41;5041521;28;20025;-76
2024/03/21 08:21:19;;;;;;;16.40;8.32;;;;;;;14.20;88.11;101323.81;5041987;28;20044;-69
2024/03/21 08:23:45;;;;;;;17.90;7.93;;;;;;;14.33;87.71;101323.47;5042304;28;20047;-68
2024/03/21 08:26:11;;;;;;;22.92;9.88;;;;;;;14.58;90.08;101322.78;5040188;28;20532;-68
2024/03/21 08:28:36;;;;;;;15.90;8.48;;;;;;;14.74;90.76;101322.91;5029568;28;20020;-68
2024/03/21 08:31:01;;;;;;;18.27;8.07;;;;;;;14.85;89.60;101314.00;5041938;28;20374;-68
2024/03/21 08:33:28;;;;;;;17.20;7.90;;;;;;;14.92;87.90;101315.84;5034536;28;20049;-68
2024/03/21 08:35:54;;;;;;;15.35;7.82;;;;;;;14.67;85.37;101316.63;5038299;28;20103;-69
2024/03/21 08:38:19;;;;;;;15.45;8.10;;;;;;;14.50;88.96;101320.91;5047089;28;20481;-69
2024/03/21 08:40:52;;;;;;;19.23;7.93;;;;;;;14.41;89.38;101327.03;5040679;28;20032;-69
2024/03/21 08:43:18;;;;;;;16.58;7.03;;;;;;;14.59;89.21;101329.69;5037687;28;20037;-69
2024/03/21 08:45:47;;;;;;;16.58;8.57;;;;;;;14.60;89.38;101334.78;5037382;28;20044;-69
2024/03/21 08:48:14;;;;;;;15.00;7.50;;;;;;;14.65;88.60;101325.63;5044240;28;20057;-69
2024/03/21 08:50:41;;;;;;;19.52;8.05;;;;;;;14.60;90.19;101341.81;5035137;28;20044;-69
2024/03/21 08:53:06;;;;;;;18.27;7.35;;;;;;;14.58;90.92;101338.53;5034464;28;20029;-69
2024/03/21 08:55:33;;;;;;;17.92;8.10;;;;;;;14.61;91.26;101338.22;5041627;28;20388;-69
2024/03/21 08:57:59;;;;;;;14.80;7.32;;;;;;;14.56;91.06;101343.09;5037468;28;20110;-69
2024/03/21 09:00:24;;;;;;;18.02;7.88;;;;;;;14.55;90.53;101336.19;5035790;28;20477;-69
2024/03/21 09:02:50;;;;;;;17.33;8.20;;;;;;;14.36;90.44;101328.41;5036396;28;20476;-70
2024/03/21 09:05:15;;;;;;;18.15;7.07;;;;;;;14.18;91.57;101326.59;5043641;28;20550;-69
2024/03/21 09:07:40;;;;;;;10.60;6.82;;;;;;;14.03;92.30;101328.06;5042144;28;20029;-69
2024/03/21 09:10:06;;;;;;;15.05;7.07;;;;;;;13.95;92.74;101335.84;5039688;28;20025;-69
2024/03/21 09:12:31;;;;;;;13.80;7.50;;;;;;;13.80;91.32;101334.66;5043048;28;20029;-69
2024/03/21 09:14:57;;;;;;;14.77;6.57;;;;;;;13.74;93.37;101338.66;5040505;28;20091;-68
2024/03/21 09:17:22;;;;;;;15.05;7.32;;;;;;;13.80;93.66;101335.47;5040528;28;20032;-69
2024/03/21 09:19:48;;;;;;;12.95;6.90;;;;;;;14.04;93.07;101334.97;5038417;28;20040;-68
2024/03/21 09:22:13;;;;;;;15.73;7.43;;;;;;;14.27;91.93;101330.94;5040976;28;20041;-68
2024/03/21 09:24:41;;;;;;;11.30;7.10;;;;;;;14.55;89.95;101325.69;5042228;28;20033;-69
2024/03/21 09:27:07;;;;;;;12.23;5.90;;;;;;;14.78;90.12;101326.06;5042361;28;20150;-69
2024/03/21 09:29:33;;;;;;;16.98;7.70;;;;;;;14.85;89.24;101327.09;5042714;28;20036;-69
2024/03/21 09:31:58;;;;;;;14.93;7.38;;;;;;;14.84;89.03;101313.16;5040133;28;20497;-69
2024/03/21 09:34:24;;;;;;;14.50;7.22;;;;;;;14.74;88.37;101317.66;5042913;28;20049;-68
2024/03/21 09:36:50;;;;;;;15.02;6.15;;;;;;;14.73;89.12;101321.25;5045032;28;20040;-68
2024/03/21 09:39:15;;;;;;;11.65;6.13;;;;;;;14.55;89.41;101321.28;5048030;28;20396;-68
2024/03/21 09:41:41;;;;;;;13.27;6.35;;;;;;;14.42;89.61;101320.00;5047869;28;20368;-68
2024/03/21 09:44:14;;;;;;;14.68;7.00;;;;;;;14.38;89.49;101326.47;5051549;28;20052;-68
2024/03/21 09:46:41;;;;;;;11.27;5.85;;;;;;;14.22;89.25;101317.47;5044758;28;20056;-68
2024/03/21 09:49:11;;;;;;;13.93;6.97;;;;;;;14.31;90.13;101320.16;5051542;28;20025;-68
2024/03/21 09:51:39;;;;;;;10.30;5.47;;;;;;;14.39;90.19;101313.22;5045353;28;20112;-68
2024/03/21 09:54:04;;;;;;;11.50;6.03;;;;;;;14.54;90.47;101324.06;5042538;28;20134;-68
2024/03/21 09:56:30;;;;;;;14.30;6.25;;;;;;;14.68;90.00;101309.56;5042239;28;20048;-68
2024/03/21 09:58:56;;;;;;;13.32;6.22;;;;;;;14.72;88.69;101306.50;5045620;28;20042;-68
2024/03/21 10:01:23;;;;;;;12.60;6.07;;;;;;;14.60;89.09;101305.09;5040285;28;20029;-68
2024/03/21 10:03:52;;;;;;;11.10;5.95;;;;;;;14.65;89.74;101302.81;5044449;28;20041;-68
2024/03/21 10:06:17;;;;;;;12.70;6.57;;;;;;;14.59;88.72;101298.22;5034228;28;20477;-67
2024/03/21 10:08:43;;;;;;;11.48;5.85;;;;;;;14.58;89.37;101307.88;5044875;28;20047;-67
2024/03/21 10:11:08;;;;;;;11.93;6.00;;;;;;;14.42;88.68;101304.25;5046523;28;20041;-66
2024/03/21 10:13:34;;;;;;;11.13;5.78;;;;;;;14.51;89.27;101296.34;5045663;28;20033;-66
2024/03/21 10:16:00;;;;;;;10.93;5.28;;;;;;;14.83;89.53;101289.72;5046998;28;20485;-67
2024/03/21 10:18:25;;;;;;;16.02;5.28;;;;;;;15.21;88.18;101280.63;5047590;28;20111;-66
2024/03/21 10:20:51;;;;;;;12.20;5.28;;;;;;;15.08;86.95;101280.22;5048421;28;20036;-66
2024/03/21 10:23:17;;;;;;;11.85;5.85;;;;;;;15.26;87.47;101270.47;5046256;28;20124;-67
2024/03/21 10:25:46;;;;;;;10.82;4.68;;;;;;;15.25;87.76;101274.06;5050043;28;20029;-66
2024/03/21 10:28:17;;;;;;;11.45;5.40;;;;;;;15.14;88.53;101274.34;5045559;28;20152;-66
2024/03/21 10:30:43;;;;;;;12.80;5.45;;;;;;;15.25;88.54;101267.03;5046444;28;20064;-66
2024/03/21 10:33:19;;;;;;;11.85;5.43;;;;;;;15.53;87.53;101269.47;5044580;28;20072;-66
2024/03/21 10:35:45;;;;;;;7.22;4.47;;;;;;;15.45;85.48;101259.75;5036372;28;20033;-67
2024/03/21 10:38:15;;;;;;;11.45;5.05;;;;;;;15.22;85.63;101256.84;5045483;28;20044;-67
2024/03/21 10:40:52;;;;;;;11.07;5.40;;;;;;;15.12;86.05;101257.94;5048809;28;20040;-67
2024/03/21 10:43:20;;;;;;;8.63;5.00;;;;;;;15.36;87.83;101255.44;5044765;28;20298;-67
2024/03/21 10:45:46;;;;;;;10.60;5.18;;;;;;;15.37;86.83;101256.25;5040695;28;20103;-67
2024/03/21 10:48:43;;;;;;;8.68;4.72;;;;;;;15.60;84.93;101247.69;5043370;28;20025;-67
2024/03/21 10:51:17;;;;;;;10.85;5.82;;;;;;;15.88;86.64;101252.72;5035430;28;20037;-70
2024/03/21 10:54:00;;;;;;;12.23;6.43;;;;;;;16.05;84.64;101258.84;5047036;28;20039;-68
2024/03/21 10:56:26;;;;;;;14.93;6.63;;;;;;;15.82;83.94;101259.44;5046079;28;20025;-68
2024/03/21 10:58:57;;;;;;;13.38;6.20;;;;;;;15.85;85.56;101256.50;5048557;28;20027;-68
2024/03/21 11:01:41;;;;;;;12.77;6.45;;;;;;;15.79;84.96;101254.50;5047271;28;20037;-68
2024/03/21 11:04:16;;;;;;;13.27;6.70;;;;;;;15.73;82.72;101247.25;5043023;28;20032;-68
2024/03/21 11:06:45;;;;;;;16.02;7.55;;;;;;;15.74;85.78;101240.19;5040881;28;20519;-68
2024/03/21 11:09:14;;;;;;;16.23;7.55;;;;;;;15.73;85.81;101241.16;5041081;28;20028;-68
2024/03/21 11:11:40;;;;;;;13.77;6.82;;;;;;;15.90;85.36;101243.69;5043535;28;20300;-68
2024/03/21 11:14:07;;;;;;;14.35;7.50;;;;;;;16.07;85.26;101246.38;5038865;28;20061;-68
2024/03/21 11:16:33;;;;;;;14.35;7.32;;;;;;;16.15;84.76;101241.94;5035849;28;20108;-68